createdAt,value
2022-12-29T00:00:16.045Z,70.30
2022-12-29T00:05:39.954Z,71.21
2022-12-29T00:10:43.874Z,70.54
2022-12-29T00:15:47.754Z,69.58
2022-12-29T00:21:14.986Z,69.70
2022-12-29T00:26:37.747Z,69.47
2022-12-29T00:31:59.919Z,69.94
2022-12-29T00:37:04.043Z,69.66
2022-12-29T00:42:29.871Z,69.95
2022-12-29T00:47:33.588Z,70.77
2022-12-29T00:52:38.225Z,70.10
2022-12-29T00:57:42.465Z,69.81
2022-12-29T01:02:46.708Z,70.57
2022-12-29T01:07:50.975Z,71.50
2022-12-29T01:12:54.870Z,71.33
2022-12-29T01:17:58.902Z,71.36
2022-12-29T01:23:02.928Z,71.53
2022-12-29T01:28:06.747Z,71.13
2022-12-29T01:33:11.189Z,70.20
2022-12-29T01:38:14.905Z,70.56
2022-12-29T01:43:18.747Z,70.17
2022-12-29T01:48:22.559Z,71.40
2022-12-29T01:53:36.470Z,71.81
2022-12-29T01:58:47.651Z,72.04
2022-12-29T02:03:53.148Z,72.26
2022-12-29T02:08:58.955Z,71.51
2022-12-29T02:14:03.862Z,71.49
2022-12-29T02:20:05.078Z,72.30
2022-12-29T02:25:53.230Z,72.66
2022-12-29T02:31:12.071Z,73.13
2022-12-29T02:36:51.828Z,73.15
2022-12-29T02:42:03.488Z,73.21
2022-12-29T02:47:30.960Z,73.40
2022-12-29T02:52:59.908Z,74.21
2022-12-29T02:58:24.624Z,74.10
2022-12-29T03:03:53.507Z,74.26
2022-12-29T03:09:27.130Z,73.54
2022-12-29T03:15:02.324Z,73.37
2022-12-29T03:20:11.841Z,73.99
2022-12-29T03:25:48.136Z,74.06
2022-12-29T03:30:52.101Z,74.18
2022-12-29T03:36:04.402Z,73.02
2022-12-29T03:41:16.030Z,74.06
2022-12-29T03:46:19.660Z,72.57
2022-12-29T03:51:23.646Z,70.12
2022-12-29T03:56:27.462Z,67.66
2022-12-29T04:01:31.224Z,68.32
2022-12-29T04:06:35.220Z,67.40
2022-12-29T04:11:39.160Z,68.66
2022-12-29T04:16:43.197Z,69.19
2022-12-29T04:21:47.024Z,67.40
2022-12-29T04:26:51.261Z,67.85
2022-12-29T04:31:54.958Z,70.84
2022-12-29T04:36:58.577Z,71.41
2022-12-29T04:42:02.308Z,71.64
2022-12-29T04:47:06.143Z,68.40
2022-12-29T04:52:09.957Z,65.44
2022-12-29T04:57:13.675Z,64.41
2022-12-29T05:02:19.201Z,64.15
2022-12-29T05:07:22.860Z,63.61
2022-12-29T05:12:26.804Z,62.29
2022-12-29T05:17:31.402Z,61.38
2022-12-29T05:22:34.963Z,62.26
2022-12-29T05:27:39.039Z,63.20
2022-12-29T05:32:43.134Z,63.99
2022-12-29T05:37:47.050Z,64.09
2022-12-29T05:42:51.067Z,63.48
2022-12-29T05:47:54.792Z,62.41
2022-12-29T05:52:58.521Z,63.30
2022-12-29T05:58:02.556Z,64.45
2022-12-29T06:03:06.880Z,64.65
2022-12-29T06:08:11.332Z,64.00
2022-12-29T06:13:15.260Z,63.89
2022-12-29T06:18:20.386Z,64.32
2022-12-29T06:23:24.328Z,64.91
2022-12-29T06:28:28.260Z,64.63
2022-12-29T06:33:32.229Z,65.58
2022-12-29T06:38:36.728Z,65.14
2022-12-29T06:43:41.374Z,64.20
2022-12-29T06:48:45.199Z,62.26
2022-12-29T06:53:49.331Z,63.94
2022-12-29T06:58:53.058Z,64.31
2022-12-29T07:03:57.189Z,64.44
2022-12-29T07:09:01.487Z,65.72
2022-12-29T07:14:05.651Z,65.25
2022-12-29T07:19:09.482Z,63.81
2022-12-29T07:24:13.619Z,65.29
2022-12-29T07:29:17.842Z,64.96
2022-12-29T07:34:21.670Z,66.04
2022-12-29T07:39:25.339Z,65.21
2022-12-29T07:44:29.525Z,64.69
2022-12-29T07:49:34.443Z,64.40
2022-12-29T07:54:39.024Z,64.22
2022-12-29T08:09:37.947Z,65.32
2022-12-29T08:14:42.020Z,66.47
2022-12-29T08:19:45.701Z,66.35
2022-12-29T08:24:49.820Z,65.37
2022-12-29T08:29:55.224Z,64.39
2022-12-29T08:34:59.083Z,62.92
2022-12-29T08:40:05.641Z,65.10
2022-12-29T08:45:10.510Z,64.09
2022-12-29T08:50:14.232Z,64.80
2022-12-29T08:55:18.248Z,66.18
2022-12-29T09:00:22.055Z,63.45
2022-12-29T09:05:25.915Z,61.72
2022-12-29T09:10:29.789Z,61.62
2022-12-29T09:15:33.679Z,63.76
2022-12-29T09:20:38.523Z,64.80
2022-12-29T09:25:44.530Z,65.57
2022-12-29T09:30:49.890Z,65.90
2022-12-29T09:35:57.469Z,66.51
2022-12-29T09:41:21.361Z,67.27
2022-12-29T09:46:31.465Z,67.05
2022-12-29T09:51:40.075Z,68.36
2022-12-29T09:56:47.046Z,68.57
2022-12-29T10:02:24.677Z,67.62
2022-12-29T10:07:45.016Z,66.37
2022-12-29T10:13:11.862Z,65.56
2022-12-29T10:18:42.991Z,64.76
2022-12-29T10:23:52.909Z,65.06
2022-12-29T10:29:05.228Z,65.53
2022-12-29T10:34:35.004Z,63.02
2022-12-29T10:39:54.983Z,63.42
2022-12-29T10:45:00.944Z,63.01
2022-12-29T10:50:06.544Z,61.94
2022-12-29T10:55:33.260Z,61.97
2022-12-29T11:00:37.139Z,62.81
2022-12-29T11:05:47.907Z,63.59
2022-12-29T11:11:11.736Z,63.75
2022-12-29T11:16:15.683Z,63.84
2022-12-29T11:21:28.961Z,63.76
2022-12-29T11:26:35.335Z,63.72
2022-12-29T11:31:56.442Z,64.25
2022-12-29T11:37:07.489Z,65.27
2022-12-29T11:42:21.395Z,65.86
2022-12-29T11:47:31.593Z,65.89
2022-12-29T11:52:40.929Z,66.22
2022-12-29T11:57:46.177Z,66.09
2022-12-29T12:03:09.601Z,66.76
2022-12-29T12:08:37.499Z,67.28
2022-12-29T12:14:05.010Z,66.80
2022-12-29T12:19:36.232Z,67.11
2022-12-29T12:24:57.865Z,67.48
2022-12-29T12:30:17.048Z,67.08
2022-12-29T12:35:54.402Z,65.75
2022-12-29T12:41:10.996Z,65.84
2022-12-29T12:46:52.017Z,65.94
2022-12-29T12:52:08.053Z,65.50
2022-12-29T12:57:49.190Z,65.17
2022-12-29T13:03:11.933Z,64.79
2022-12-29T13:08:39.552Z,65.61
2022-12-29T13:13:52.599Z,66.44
2022-12-29T13:19:15.783Z,66.74
2022-12-29T13:24:34.965Z,67.52
2022-12-29T13:30:10.007Z,68.31
2022-12-29T13:35:56.779Z,69.71
2022-12-29T13:41:40.677Z,69.98
2022-12-29T13:46:48.039Z,68.98
2022-12-29T13:51:56.924Z,68.23
2022-12-29T13:57:09.206Z,67.55
2022-12-29T14:02:23.024Z,66.47
2022-12-29T14:07:28.194Z,65.78
2022-12-29T14:12:45.097Z,65.71
2022-12-29T14:18:03.726Z,65.63
2022-12-29T14:23:10.424Z,65.11
2022-12-29T14:28:26.176Z,65.65
2022-12-29T14:33:34.022Z,66.05
2022-12-29T14:38:47.614Z,65.63
2022-12-29T14:44:21.428Z,65.37
2022-12-29T14:49:34.022Z,65.56
2022-12-29T14:54:53.050Z,65.20
2022-12-29T15:00:36.092Z,65.02
2022-12-29T15:05:47.709Z,64.84
2022-12-29T15:11:12.811Z,65.16
2022-12-29T15:16:27.134Z,64.72
2022-12-29T15:21:37.082Z,64.74
2022-12-29T15:26:48.256Z,64.97
2022-12-29T15:31:52.121Z,65.04
2022-12-29T15:36:56.043Z,65.31
2022-12-29T15:42:39.237Z,65.18
2022-12-29T15:47:51.807Z,64.62
2022-12-29T15:53:00.821Z,64.67
2022-12-29T15:58:20.091Z,64.58
2022-12-29T16:03:28.158Z,64.42
2022-12-29T16:08:41.279Z,64.62
2022-12-29T16:13:46.736Z,64.19
2022-12-29T16:18:57.776Z,64.05
2022-12-29T16:24:30.468Z,65.23
2022-12-29T16:29:35.539Z,65.37
2022-12-29T16:34:39.513Z,65.09
2022-12-29T16:39:43.982Z,64.94
2022-12-29T16:44:47.659Z,65.10
2022-12-29T16:49:55.391Z,64.94
2022-12-29T16:55:04.901Z,64.56
2022-12-29T17:00:23.244Z,64.18
2022-12-29T17:05:28.084Z,64.61
2022-12-29T17:10:53.800Z,64.79
2022-12-29T17:15:59.253Z,64.21
2022-12-29T17:21:04.259Z,63.68
2022-12-29T17:26:11.053Z,63.79
2022-12-29T17:31:15.475Z,64.66
2022-12-29T17:36:19.628Z,64.77
2022-12-29T17:41:23.429Z,63.96
2022-12-29T17:46:27.869Z,63.92
2022-12-29T17:51:31.612Z,63.74
2022-12-29T17:56:35.909Z,63.90
2022-12-29T18:01:45.610Z,63.32
2022-12-29T18:06:52.291Z,64.18
2022-12-29T18:11:57.019Z,64.11
2022-12-29T18:17:01.358Z,63.63
2022-12-29T18:22:05.371Z,64.05
2022-12-29T18:27:19.886Z,65.14
2022-12-29T18:32:23.983Z,64.61
2022-12-29T18:37:27.973Z,65.04
2022-12-29T18:42:31.777Z,65.03
2022-12-29T18:47:35.868Z,65.37
2022-12-29T18:52:40.486Z,64.95
2022-12-29T18:57:45.601Z,64.95
2022-12-29T19:02:52.884Z,66.18
2022-12-29T19:07:57.203Z,66.41
2022-12-29T19:13:02.169Z,66.72
2022-12-29T19:23:35.176Z,67.31
2022-12-29T19:28:39.034Z,66.88
2022-12-29T19:33:42.985Z,66.52
2022-12-29T19:38:47.394Z,66.57
2022-12-29T19:43:51.417Z,66.19
2022-12-29T19:48:59.248Z,65.63
2022-12-29T19:54:03.208Z,65.48
2022-12-29T19:59:07.523Z,65.16
2022-12-29T20:04:11.957Z,64.52
2022-12-29T20:09:17.234Z,64.03
2022-12-29T20:14:21.698Z,63.24
2022-12-29T20:19:26.289Z,62.48
2022-12-29T20:24:32.378Z,61.40
2022-12-29T20:29:40.791Z,60.72
2022-12-29T20:34:46.691Z,60.59
2022-12-29T20:39:50.920Z,60.70
2022-12-29T20:44:55.059Z,60.99
2022-12-29T20:49:59.343Z,60.86
2022-12-29T20:55:03.898Z,61.03
2022-12-29T21:00:22.525Z,61.19
2022-12-29T21:05:39.832Z,61.03
2022-12-29T21:10:47.906Z,60.63
2022-12-29T21:16:06.031Z,60.57
2022-12-29T21:21:31.796Z,60.89
2022-12-29T21:26:36.071Z,61.76
2022-12-29T21:31:40.335Z,61.89
2022-12-29T21:36:44.686Z,62.03
2022-12-29T21:41:48.954Z,61.83
2022-12-29T21:46:52.823Z,61.51
2022-12-29T21:51:58.197Z,61.36
2022-12-29T21:57:02.521Z,61.05
2022-12-29T22:02:53.593Z,60.80
2022-12-29T22:08:17.039Z,61.23
2022-12-29T22:13:20.867Z,62.11
2022-12-29T22:18:25.930Z,62.74
2022-12-29T22:23:30.065Z,62.60
2022-12-29T22:28:41.250Z,63.18
2022-12-29T22:33:46.090Z,63.76
2022-12-29T22:38:50.540Z,64.05
2022-12-29T22:43:55.499Z,64.46
2022-12-29T22:48:59.754Z,64.11
2022-12-29T22:54:03.543Z,64.03
2022-12-29T22:59:07.397Z,64.31
2022-12-29T23:04:55.558Z,64.18
2022-12-29T23:09:35.715Z,63.61
2022-12-29T23:14:39.836Z,63.19
2022-12-29T23:19:43.573Z,62.88
2022-12-29T23:24:47.521Z,62.86
2022-12-29T23:29:51.426Z,62.63
2022-12-29T23:34:55.551Z,62.56
2022-12-29T23:39:59.485Z,63.14
2022-12-29T23:45:03.930Z,63.99
2022-12-29T23:50:09.261Z,63.60
2022-12-29T23:55:13.413Z,64.33
